Craryville, New York
Current Conditions -  °F | °C
As of 6:54 PM on Wednesday 26 Nov 2014 (Local Time) from KPSF Reporting Station
Light Snow Light Snow  
Wind Chill: 24°   Ceiling: NA
Heat Index: 31°   Visibility: 1mi
Dew Point: 30°   Wind: 7mph
Humidity: 96%   Direction: 10°N
Pressure: 29.81"   Gusts: NA
Location:  42.17°N, 73.58°W
Report Text: KPSF 262354Z AUTO 01006KT 1SM -SN BR M01/M01 A2981 RMK AO2 SLP103 P0006 60049 T10061011 10000 21006 $
Loading
Personal Weather Stations






























Interactive Weather Map New forecast layout! Learn more

10-Day Weather Forecast

Advertisements
Track Severe Weather on mobile